Terminal Aerodrome Forecast
Issued by NWS

Home | Current Version | Previous Version | Text Only | Print | Product List | Glossary On
Versions: 1 2 3 4 5 6 7 8 9 10 11 12 13 14 15 16 17 18 19 20 21 22 23 24 25 26 27 28
977
FTUS45 KGJT 251739
TAFRIL
TAF
KRIL 251739Z 2518/2618 VRB03KT P6SM -RA BKN080 OVC100
     FM252000 24008KT P6SM VCTS SCT080CB BKN100
      TEMPO 2522/2602 VRB15G25KT 6SM TSRA BR SCT050 BKN070CB
     FM260200 20006KT P6SM VCTS BKN090CB
     FM260500 VRB03KT P6SM VCSH FEW045 BKN080=

USA.gov is the U.S. government's official web portal to all federal, state and local government web resources and services.